createdAt,value
2022-11-06T00:03:22.698Z,68.8
2022-11-06T00:08:58.333Z,68.7
2022-11-06T00:14:33.218Z,68.8
2022-11-06T00:20:08.926Z,68.8
2022-11-06T00:25:43.968Z,68.7
2022-11-06T00:31:19.106Z,68.8
2022-11-06T00:36:54.602Z,68.7
2022-11-06T00:42:29.456Z,68.8
2022-11-06T00:48:26.408Z,68.8
2022-11-06T00:53:59.995Z,68.7
2022-11-06T00:59:35.332Z,69
2022-11-06T01:05:11.086Z,69
2022-11-06T01:10:46.406Z,69
2022-11-06T01:16:21.309Z,68.7
2022-11-06T01:21:57.291Z,68.6
2022-11-06T01:27:32.258Z,68.7
2022-11-06T01:33:07.597Z,69
2022-11-06T01:38:42.683Z,69.3
2022-11-06T01:44:17.536Z,69.2
2022-11-06T01:49:52.871Z,69.1
2022-11-06T01:55:27.907Z,69.3
2022-11-06T02:01:03.148Z,69.1
2022-11-06T02:06:38.929Z,69
2022-11-06T02:12:15.126Z,68.9
2022-11-06T02:17:50.074Z,68.9
2022-11-06T02:23:25.769Z,69
2022-11-06T02:29:00.820Z,69.4
2022-11-06T02:34:35.773Z,69.7
2022-11-06T02:40:10.685Z,69.5
2022-11-06T02:45:45.764Z,69.6
2022-11-06T02:51:21.122Z,69.7
2022-11-06T02:56:56.142Z,69.5
2022-11-06T03:02:31.837Z,69.5
2022-11-06T03:08:08.970Z,69.4
2022-11-06T03:13:45.226Z,69.3
2022-11-06T03:19:20.269Z,69.3
2022-11-06T03:24:55.153Z,69.7
2022-11-06T03:30:29.892Z,69.4
2022-11-06T03:36:04.657Z,69.2
2022-11-06T03:41:39.726Z,69
2022-11-06T03:47:36.347Z,68.6
2022-11-06T03:53:09.797Z,68.7
2022-11-06T03:58:45.096Z,68.4
2022-11-06T04:04:20.867Z,68.6
2022-11-06T04:09:55.787Z,68.3
2022-11-06T04:15:30.706Z,68.3
2022-11-06T04:21:05.542Z,68.4
2022-11-06T04:26:40.771Z,68.4
2022-11-06T04:32:16.632Z,68.3
2022-11-06T04:37:51.531Z,68.2
2022-11-06T04:43:26.331Z,68.1
2022-11-06T04:49:22.986Z,68.1
2022-11-06T04:54:55.562Z,67.9
2022-11-06T05:00:31.081Z,67.8
2022-11-06T05:06:08.017Z,68.1
2022-11-06T05:11:42.915Z,68.2
2022-11-06T05:17:17.651Z,68.1
2022-11-06T05:22:53.807Z,67.9
2022-11-06T05:28:28.566Z,67.5
2022-11-06T05:34:03.224Z,67.1
2022-11-06T05:39:42.435Z,67.4
2022-11-06T05:45:17.776Z,67.7
2022-11-06T05:50:52.941Z,68.4
2022-11-06T05:56:28.714Z,68.3
2022-11-06T06:02:04.047Z,68
2022-11-06T06:07:40.559Z,67.5
2022-11-06T06:13:15.478Z,67.7
2022-11-06T06:18:51.751Z,68.1
2022-11-06T06:24:27.437Z,68.1
2022-11-06T06:30:04.112Z,67.9
2022-11-06T06:35:38.991Z,67.3
2022-11-06T06:41:14.135Z,67
2022-11-06T06:47:11.591Z,67.4
2022-11-06T06:52:44.380Z,68.1
2022-11-06T06:58:21.745Z,67.8
2022-11-06T07:04:04.757Z,68
2022-11-06T07:09:40.440Z,66.3
2022-11-06T07:15:15.136Z,65.8
2022-11-06T07:20:50.067Z,65.7
2022-11-06T07:26:24.861Z,65.4
2022-11-06T07:31:59.879Z,65.1
2022-11-06T07:37:34.885Z,65.1
2022-11-06T07:43:09.632Z,65.1
2022-11-06T07:49:06.446Z,66.9
2022-11-06T07:54:40.675Z,65
2022-11-06T08:00:15.451Z,66.7
2022-11-06T08:05:50.345Z,66
2022-11-06T08:11:25.280Z,68.8
2022-11-06T08:17:00.180Z,69.9
2022-11-06T08:22:35.274Z,72
2022-11-06T08:28:11.841Z,71.3
2022-11-06T08:33:51.015Z,73.8
2022-11-06T08:39:26.012Z,75.3
2022-11-06T08:45:01.156Z,66.5
2022-11-06T08:50:36.001Z,66
2022-11-06T08:56:12.413Z,64.2
2022-11-06T09:01:47.770Z,68
2022-11-06T09:07:24.746Z,65.7
2022-11-06T09:12:59.723Z,61.9
2022-11-06T09:18:36.073Z,62.1
2022-11-06T09:24:11.023Z,68.6
2022-11-06T09:29:46.135Z,67.3
2022-11-06T09:35:21.408Z,68.1
2022-11-06T09:41:05.092Z,67.7
2022-11-06T09:47:01.964Z,64.6
2022-11-06T09:52:36.011Z,67.1
2022-11-06T09:58:13.860Z,63.1
2022-11-06T10:03:51.669Z,59.5
2022-11-06T10:09:26.779Z,60.5
2022-11-06T10:15:01.890Z,60.8
2022-11-06T10:20:37.209Z,59
2022-11-06T10:26:12.436Z,59.5
2022-11-06T10:31:47.527Z,56.2
2022-11-06T10:39:14.459Z,58.4
2022-11-06T10:44:49.796Z,59.3
2022-11-06T10:50:24.842Z,57.8
2022-11-06T10:56:00.716Z,57.9
2022-11-06T11:01:46.824Z,52.6
2022-11-06T11:07:24.135Z,53.1
2022-11-06T11:13:07.050Z,54.1
2022-11-06T11:18:44.452Z,46
2022-11-06T11:24:20.373Z,46.8
2022-11-06T11:29:56.217Z,46.3
2022-11-06T11:35:43.102Z,46.7
2022-11-06T11:41:21.634Z,42.9
2022-11-06T11:47:18.907Z,46.5
2022-11-06T11:52:51.911Z,45.2
2022-11-06T11:58:26.767Z,45.2
2022-11-06T12:04:01.838Z,48.3
2022-11-06T12:09:36.875Z,44.4
2022-11-06T12:15:12.447Z,45.7
2022-11-06T12:20:48.436Z,49.3
2022-11-06T12:26:50.180Z,41.7
2022-11-06T12:32:36.553Z,43.5
2022-11-06T12:38:32.594Z,37.5
2022-11-06T12:44:08.975Z,42.3
2022-11-06T12:49:46.347Z,44.5
2022-11-06T12:56:06.817Z,42.5
2022-11-06T13:01:42.519Z,44.4
2022-11-06T13:07:19.601Z,41.9
2022-11-06T13:12:58.322Z,42.1
2022-11-06T13:18:58.339Z,43.6
2022-11-06T13:24:37.189Z,40.1
2022-11-06T13:30:12.604Z,39.8
2022-11-06T13:36:02.101Z,33.3
2022-11-06T13:41:45.548Z,33.5
2022-11-06T13:47:44.857Z,39.8
2022-11-06T13:53:17.836Z,35.1
2022-11-06T13:59:06.839Z,34.5
2022-11-06T14:04:41.938Z,35.8
2022-11-06T14:10:18.317Z,33.3
2022-11-06T14:15:53.793Z,37.1
2022-11-06T14:21:30.631Z,43
2022-11-06T14:27:15.535Z,42.9
2022-11-06T14:33:07.895Z,40.8
2022-11-06T14:39:13.334Z,39.6
2022-11-06T14:45:16.243Z,44.6
2022-11-06T14:50:51.956Z,41.2
2022-11-06T14:56:29.790Z,43.2
2022-11-06T15:02:06.667Z,42.2
2022-11-06T15:08:06.184Z,47
2022-11-06T15:13:42.607Z,49.3
2022-11-06T15:19:44.089Z,49.6
2022-11-06T15:25:19.480Z,51
2022-11-06T15:31:04.471Z,51.1
2022-11-06T15:36:39.244Z,53.1
2022-11-06T15:42:24.282Z,52.7
2022-11-06T15:48:25.670Z,54.2
2022-11-06T15:53:58.888Z,53.6
2022-11-06T15:59:43.298Z,56
2022-11-06T16:05:18.068Z,57.9
2022-11-06T16:10:53.922Z,58.1
2022-11-06T16:16:32.458Z,59.4
2022-11-06T16:22:23.797Z,60
2022-11-06T16:27:59.601Z,60.9
2022-11-06T16:33:37.089Z,60.6
2022-11-06T16:39:20.998Z,61.7
2022-11-06T16:45:26.815Z,62.2
2022-11-06T16:51:24.627Z,63.4
2022-11-06T16:57:02.424Z,62.9
2022-11-06T17:02:45.965Z,64.2
2022-11-06T17:08:22.971Z,64.1
2022-11-06T17:14:26.021Z,68.2
2022-11-06T17:20:03.490Z,63.9
2022-11-06T17:25:42.608Z,64.1
2022-11-06T17:31:23.054Z,64
2022-11-06T17:36:59.043Z,61.8
2022-11-06T17:42:35.312Z,61.4
2022-11-06T17:48:34.146Z,61.5
2022-11-06T17:54:07.960Z,62.1
2022-11-06T17:59:45.133Z,62.2
2022-11-06T18:05:20.278Z,62.3
2022-11-06T18:10:55.231Z,62.1
2022-11-06T18:16:30.170Z,62
2022-11-06T18:22:07.274Z,62
2022-11-06T18:27:42.258Z,62.3
2022-11-06T18:33:22.108Z,62.5
2022-11-06T18:38:56.830Z,62.7
2022-11-06T18:44:32.750Z,62.8
2022-11-06T18:50:14.953Z,63.1
2022-11-06T18:55:57.807Z,63.7
2022-11-06T19:01:34.668Z,64.4
2022-11-06T19:07:12.110Z,64.9
2022-11-06T19:12:46.853Z,65.1
2022-11-06T19:18:22.871Z,65.1
2022-11-06T19:24:05.513Z,65.2
2022-11-06T19:29:42.239Z,65.2
2022-11-06T19:35:17.348Z,65.4
2022-11-06T19:40:52.210Z,65.6
2022-11-06T19:46:36.447Z,65.8
2022-11-06T19:52:46.462Z,65.8
2022-11-06T19:58:40.033Z,66.1
2022-11-06T20:04:15.945Z,66.3
2022-11-06T20:09:51.039Z,66.4
2022-11-06T20:15:26.468Z,66.4
2022-11-06T20:21:13.734Z,66.8
2022-11-06T20:26:49.429Z,67.2
2022-11-06T20:32:24.451Z,67.4
2022-11-06T20:37:59.615Z,67.4
2022-11-06T20:43:34.961Z,67.5
2022-11-06T20:49:31.982Z,67.2
2022-11-06T20:55:04.727Z,67.7
2022-11-06T21:00:40.529Z,67.8
2022-11-06T21:06:16.628Z,68.1
2022-11-06T21:11:52.311Z,68
2022-11-06T21:17:28.133Z,68.1
2022-11-06T21:23:12.951Z,68.3
2022-11-06T21:28:50.225Z,68.3
2022-11-06T21:34:25.115Z,68.2
2022-11-06T21:40:00.095Z,68
2022-11-06T21:45:36.329Z,68.2
2022-11-06T21:51:11.516Z,68.2
2022-11-06T21:56:53.415Z,68.5
2022-11-06T22:02:28.807Z,68.6
2022-11-06T22:08:06.082Z,68.5
2022-11-06T22:13:41.043Z,68.6
2022-11-06T22:19:16.390Z,68.9
2022-11-06T22:24:51.477Z,69.1
2022-11-06T22:30:26.451Z,69.4
2022-11-06T22:36:02.341Z,69.4
2022-11-06T22:41:38.422Z,69.7
2022-11-06T22:47:37.542Z,69.7
2022-11-06T22:53:15.596Z,69.7
2022-11-06T22:58:53.091Z,69.7
2022-11-06T23:04:28.008Z,69.8
2022-11-06T23:10:02.892Z,69.8
2022-11-06T23:15:38.110Z,69.6
2022-11-06T23:21:12.990Z,69.6
2022-11-06T23:26:49.098Z,70
2022-11-06T23:32:25.371Z,70
2022-11-06T23:38:01.186Z,70.2
2022-11-06T23:43:36.082Z,69.9
2022-11-06T23:49:33.232Z,69.7
2022-11-06T23:55:06.960Z,69.5
